createdAt,value
2022-07-29T00:00:23.716Z,1.04
2022-07-29T00:01:23.817Z,1.04
2022-07-29T00:02:24.010Z,1.04
2022-07-29T00:03:24.162Z,1.04
2022-07-29T00:04:24.268Z,1.04
2022-07-29T00:05:24.327Z,1.04
2022-07-29T00:06:24.478Z,1.04
2022-07-29T00:07:24.630Z,1.04
2022-07-29T00:08:24.732Z,1.04
2022-07-29T00:09:24.884Z,1.04
2022-07-29T00:10:25.040Z,1.04
2022-07-29T00:11:25.144Z,1.04
2022-07-29T00:12:26.152Z,1.04
2022-07-29T00:13:31.929Z,1.04
2022-07-29T00:14:25.495Z,1.04
2022-07-29T00:15:25.645Z,1.04
2022-07-29T00:16:25.806Z,1.04
2022-07-29T00:17:25.851Z,1.04
2022-07-29T00:18:25.957Z,1.04
2022-07-29T00:19:26.054Z,1.04
2022-07-29T00:20:26.156Z,1.04
2022-07-29T00:21:26.307Z,1.04
2022-07-29T00:22:26.462Z,1.04
2022-07-29T00:23:26.620Z,1.04
2022-07-29T00:24:26.769Z,1.04
2022-07-29T00:25:26.882Z,1.04
2022-07-29T00:26:27.015Z,1.04
2022-07-29T00:27:27.300Z,1.04
2022-07-29T00:28:27.455Z,1.04
2022-07-29T00:29:34.312Z,1.04
2022-07-29T00:30:27.611Z,1.04
2022-07-29T00:31:27.916Z,1.04
2022-07-29T00:32:27.935Z,1.04
2022-07-29T00:33:28.074Z,1.04
2022-07-29T00:34:28.190Z,1.04
2022-07-29T00:35:28.333Z,1.04
2022-07-29T00:36:28.471Z,1.04
2022-07-29T00:37:28.599Z,1.04
2022-07-29T00:38:28.718Z,1.04
2022-07-29T00:39:28.754Z,1.04
2022-07-29T00:40:28.922Z,1.04
2022-07-29T00:41:28.993Z,1.04
2022-07-29T00:42:29.166Z,1.04
2022-07-29T00:43:29.161Z,1.04
2022-07-29T00:44:29.349Z,1.04
2022-07-29T00:45:29.504Z,1.04
2022-07-29T00:46:29.700Z,1.04
2022-07-29T00:47:29.670Z,1.04
2022-07-29T00:48:29.844Z,1.04
2022-07-29T00:49:29.920Z,1.04
2022-07-29T00:50:30.059Z,1.04
2022-07-29T00:51:30.191Z,1.04
2022-07-29T00:52:30.268Z,1.04
2022-07-29T00:53:30.450Z,1.04
2022-07-29T00:54:30.524Z,1.04
2022-07-29T00:55:30.645Z,1.04
2022-07-29T00:56:30.812Z,1.04
2022-07-29T00:57:30.938Z,1.04
2022-07-29T00:58:30.991Z,1.04
2022-07-29T00:59:34.986Z,1.04
2022-07-29T01:00:31.337Z,1.04
2022-07-29T01:01:31.367Z,1.04
2022-07-29T01:02:31.604Z,1.04
2022-07-29T01:03:31.695Z,1.04
2022-07-29T01:04:31.782Z,1.04
2022-07-29T01:05:48.381Z,1.04
2022-07-29T01:06:31.942Z,1.04
2022-07-29T01:07:32.095Z,1.04
2022-07-29T01:08:32.246Z,1.04
2022-07-29T01:09:34.396Z,1.04
2022-07-29T01:10:32.504Z,1.04
2022-07-29T01:11:32.607Z,1.04
2022-07-29T01:12:32.737Z,1.04
2022-07-29T01:13:32.861Z,1.04
2022-07-29T01:14:33.007Z,1.04
2022-07-29T01:15:33.110Z,1.04
2022-07-29T01:16:33.377Z,1.04
2022-07-29T01:17:33.366Z,1.04
2022-07-29T01:18:34.033Z,1.04
2022-07-29T01:19:33.567Z,1.04
2022-07-29T01:20:33.670Z,1.04
2022-07-29T01:21:33.821Z,1.04
2022-07-29T01:22:33.937Z,1.04
2022-07-29T01:23:34.100Z,1.04
2022-07-29T01:24:34.226Z,1.04
2022-07-29T01:25:34.326Z,1.04
2022-07-29T01:26:34.431Z,1.04
2022-07-29T01:27:34.534Z,1.04
2022-07-29T01:28:34.684Z,1.04
2022-07-29T01:29:35.922Z,1.04
2022-07-29T01:30:34.937Z,1.04
2022-07-29T01:31:36.477Z,1.04
2022-07-29T01:32:35.201Z,1.04
2022-07-29T01:33:35.294Z,1.04
2022-07-29T01:34:35.448Z,1.04
2022-07-29T01:35:35.549Z,1.04
2022-07-29T01:36:35.654Z,1.04
2022-07-29T01:37:35.801Z,1.04
2022-07-29T01:38:35.906Z,1.04
2022-07-29T01:39:36.058Z,1.04
2022-07-29T01:40:36.210Z,1.04
2022-07-29T01:41:36.310Z,1.04
2022-07-29T01:42:36.462Z,1.04
2022-07-29T01:43:36.611Z,1.04
2022-07-29T01:44:36.714Z,1.04
2022-07-29T01:45:36.821Z,1.04
2022-07-29T01:46:36.975Z,1.04
2022-07-29T01:47:37.069Z,1.04
2022-07-29T01:48:37.196Z,1.04
2022-07-29T01:49:37.325Z,1.04
2022-07-29T01:50:37.429Z,1.04
2022-07-29T01:51:37.532Z,1.04
2022-07-29T01:52:37.635Z,1.04
2022-07-29T01:53:38.328Z,1.04
2022-07-29T01:54:37.935Z,1.04
2022-07-29T01:55:38.113Z,1.04
2022-07-29T01:56:38.195Z,1.04
2022-07-29T01:57:38.339Z,1.04
2022-07-29T01:58:38.443Z,1.04
2022-07-29T01:59:38.546Z,1.04
2022-07-29T02:00:38.697Z,1.04
2022-07-29T02:01:38.854Z,1.04
2022-07-29T02:02:38.950Z,1.04
2022-07-29T02:03:39.099Z,1.04
2022-07-29T02:04:39.253Z,1.04
2022-07-29T02:05:39.307Z,1.04
2022-07-29T02:06:39.457Z,1.04
2022-07-29T02:07:39.608Z,1.04
2022-07-29T02:08:39.714Z,1.04
2022-07-29T02:09:39.812Z,1.04
2022-07-29T02:10:39.922Z,1.04
2022-07-29T02:11:40.021Z,1.04
2022-07-29T02:12:40.135Z,1.04
2022-07-29T02:13:40.274Z,1.04
2022-07-29T02:14:40.372Z,1.04
2022-07-29T02:15:40.495Z,1.04
2022-07-29T02:16:40.575Z,1.04
2022-07-29T02:17:40.960Z,1.04
2022-07-29T02:18:40.782Z,1.04
2022-07-29T02:19:40.880Z,1.04
2022-07-29T02:20:40.987Z,1.04
2022-07-29T02:21:41.083Z,1.04
2022-07-29T02:22:41.190Z,1.04
2022-07-29T02:23:45.319Z,1.04
2022-07-29T02:24:41.492Z,1.04
2022-07-29T02:25:41.594Z,1.04
2022-07-29T02:26:41.702Z,1.04
2022-07-29T02:27:41.798Z,1.04
2022-07-29T02:28:41.900Z,1.04
2022-07-29T02:29:42.000Z,1.04
2022-07-29T02:30:42.164Z,1.04
2022-07-29T02:31:42.339Z,1.04
2022-07-29T02:32:42.365Z,1.04
2022-07-29T02:33:42.460Z,1.04
2022-07-29T02:34:42.616Z,1.04
2022-07-29T02:35:42.717Z,1.04
2022-07-29T02:36:42.866Z,1.04
2022-07-29T02:37:43.018Z,1.04
2022-07-29T02:38:43.123Z,1.04
2022-07-29T02:39:43.271Z,1.04
2022-07-29T02:40:43.375Z,1.04
2022-07-29T02:41:43.524Z,1.04
2022-07-29T02:42:43.627Z,1.04
2022-07-29T02:43:43.779Z,1.04
2022-07-29T02:44:43.880Z,1.04
2022-07-29T02:45:44.033Z,1.04
2022-07-29T02:46:44.136Z,1.04
2022-07-29T02:47:44.235Z,1.04
2022-07-29T02:48:44.444Z,1.04
2022-07-29T02:49:44.497Z,2
2022-07-29T02:50:44.620Z,2
2022-07-29T02:51:45.122Z,2
2022-07-29T02:52:44.901Z,2
2022-07-29T02:53:45.038Z,2
2022-07-29T02:54:45.161Z,2
2022-07-29T02:55:45.304Z,3.04
2022-07-29T02:56:45.409Z,3.04
2022-07-29T02:57:54.215Z,3.04
2022-07-29T02:58:45.656Z,4
2022-07-29T02:59:45.758Z,4
2022-07-29T03:00:45.921Z,5.04
2022-07-29T03:01:46.540Z,6
2022-07-29T03:02:46.218Z,6
2022-07-29T03:03:46.669Z,7.04
2022-07-29T03:04:46.489Z,8
2022-07-29T03:05:46.550Z,10
2022-07-29T03:06:46.635Z,11.04
2022-07-29T03:07:47.134Z,12
2022-07-29T03:08:46.894Z,14
2022-07-29T03:09:46.981Z,16
2022-07-29T03:10:47.080Z,18
2022-07-29T03:11:49.535Z,20
2022-07-29T03:12:47.337Z,22
2022-07-29T03:13:47.437Z,24
2022-07-29T03:14:47.595Z,26
2022-07-29T03:15:47.716Z,30
2022-07-29T03:16:47.842Z,34
2022-07-29T03:17:47.943Z,42
2022-07-29T03:18:48.043Z,49.04
2022-07-29T03:19:48.195Z,53.04
2022-07-29T03:20:48.350Z,59.04
2022-07-29T03:21:48.505Z,71.04
2022-07-29T03:22:48.613Z,92
2022-07-29T03:23:48.754Z,118
2022-07-29T03:24:48.857Z,124
2022-07-29T03:25:48.983Z,124
2022-07-29T03:26:49.111Z,126
2022-07-29T03:27:49.216Z,136
2022-07-29T03:28:49.370Z,153.04
2022-07-29T03:29:50.100Z,177.12
2022-07-29T03:30:49.619Z,210.08
2022-07-29T03:31:49.723Z,230.08
2022-07-29T03:32:49.871Z,239.04
2022-07-29T03:33:49.975Z,248
2022-07-29T03:34:50.127Z,257.12
2022-07-29T03:35:50.228Z,266.08
2022-07-29T03:36:50.331Z,272
2022-07-29T03:37:50.513Z,276
2022-07-29T03:38:50.583Z,287.04
2022-07-29T03:39:50.745Z,301.12
2022-07-29T03:40:50.885Z,313.12
2022-07-29T03:41:51.041Z,320
2022-07-29T03:42:51.148Z,325.12
2022-07-29T03:43:51.293Z,325.12
2022-07-29T03:44:51.396Z,328
2022-07-29T03:45:51.497Z,335.04
2022-07-29T03:46:51.643Z,346.24
2022-07-29T03:47:52.960Z,362.24
2022-07-29T03:48:51.890Z,378.24
2022-07-29T03:49:51.912Z,390.08
2022-07-29T03:50:52.007Z,408
2022-07-29T03:51:52.110Z,431.04
2022-07-29T03:52:52.261Z,451.2
2022-07-29T03:53:52.364Z,471.04
2022-07-29T03:54:52.525Z,492.16
2022-07-29T03:55:52.623Z,515.2
2022-07-29T03:56:52.769Z,533.12
2022-07-29T03:57:52.927Z,559.04
2022-07-29T03:58:53.071Z,589.12
2022-07-29T03:59:53.174Z,633.28
2022-07-29T04:00:53.277Z,676.48
2022-07-29T04:01:53.486Z,723.2
2022-07-29T04:02:53.533Z,774.4
2022-07-29T04:03:53.719Z,837.12
2022-07-29T04:04:53.784Z,904.32
2022-07-29T04:05:54.341Z,953.6
2022-07-29T04:06:54.092Z,1051.52
2022-07-29T04:07:54.214Z,1109.12
2022-07-29T04:08:54.343Z,1210.24
2022-07-29T04:09:54.445Z,1277.44
2022-07-29T04:10:54.595Z,1436.16
2022-07-29T04:12:02.822Z,1514.24
2022-07-29T04:12:54.851Z,1580.8
2022-07-29T04:13:54.952Z,1635.84
2022-07-29T04:14:55.060Z,1692.16
2022-07-29T04:15:55.230Z,1752.32
2022-07-29T04:16:55.306Z,1816.32
2022-07-29T04:17:55.414Z,1884.16
2022-07-29T04:18:55.508Z,1972.48
2022-07-29T04:19:55.662Z,2073.6
2022-07-29T04:20:55.813Z,2192.64
2022-07-29T04:21:55.926Z,2332.16
2022-07-29T04:22:56.019Z,2487.04
2022-07-29T04:23:56.173Z,2657.28
2022-07-29T04:24:59.080Z,2836.48
2022-07-29T04:25:56.372Z,3018.24
2022-07-29T04:26:56.476Z,3189.76
2022-07-29T04:27:56.628Z,3356.16
2022-07-29T04:28:56.777Z,3520
2022-07-29T04:29:57.568Z,3686.4
2022-07-29T04:30:57.039Z,3811.84
2022-07-29T04:31:57.137Z,3968
2022-07-29T04:32:57.235Z,4124.16
2022-07-29T04:33:57.340Z,4311.04
2022-07-29T04:34:57.499Z,4436.48
2022-07-29T04:35:57.670Z,4597.76
2022-07-29T04:36:57.744Z,4764.16
2022-07-29T04:37:57.849Z,4935.68
2022-07-29T04:38:57.949Z,5109.76
2022-07-29T04:39:58.102Z,5278.72
2022-07-29T04:40:58.203Z,5457.92
2022-07-29T04:41:58.305Z,5678.08
2022-07-29T04:42:58.414Z,5867.52
2022-07-29T04:43:58.508Z,6082.56
2022-07-29T04:44:58.612Z,6297.6
2022-07-29T04:45:58.805Z,6502.4
2022-07-29T04:46:58.910Z,6640.64
2022-07-29T04:47:58.966Z,6758.4
2022-07-29T04:48:59.099Z,6809.6
2022-07-29T04:49:59.173Z,6809.6
2022-07-29T04:50:59.324Z,6819.84
2022-07-29T04:51:59.426Z,6871.04
2022-07-29T04:52:59.538Z,7111.68
2022-07-29T04:53:59.632Z,7336.96
2022-07-29T04:54:59.729Z,7690.24
2022-07-29T04:55:59.881Z,8110.08
2022-07-29T04:56:59.987Z,8207.36
2022-07-29T04:58:00.138Z,8765.439
2022-07-29T04:59:00.236Z,9236.479
2022-07-29T05:00:00.344Z,9579.52
2022-07-29T05:01:00.490Z,9768.96
2022-07-29T05:02:00.686Z,9743.359
2022-07-29T05:03:01.016Z,9625.6
2022-07-29T05:04:00.965Z,9354.24
2022-07-29T05:05:01.001Z,8509.439
2022-07-29T05:06:01.149Z,6876.16
2022-07-29T05:07:01.302Z,6850.56
2022-07-29T05:08:01.407Z,6952.96
2022-07-29T05:09:01.564Z,7060.48
2022-07-29T05:10:01.708Z,7162.88
2022-07-29T05:11:11.929Z,7249.92
2022-07-29T05:12:01.910Z,7306.24
2022-07-29T05:13:02.066Z,7296
2022-07-29T05:14:02.167Z,7280.64
2022-07-29T05:15:02.271Z,7260.16
2022-07-29T05:16:02.448Z,7255.04
2022-07-29T05:17:02.487Z,7239.68
2022-07-29T05:18:02.624Z,7224.32
2022-07-29T05:19:02.777Z,7203.84
2022-07-29T05:20:02.879Z,7173.12
2022-07-29T05:21:02.984Z,7096.32
2022-07-29T05:22:03.082Z,7050.24
2022-07-29T05:23:03.236Z,7014.4
2022-07-29T05:24:03.338Z,7009.28
2022-07-29T05:25:08.687Z,7029.76
2022-07-29T05:26:03.641Z,7055.36
2022-07-29T05:27:03.744Z,7075.84
2022-07-29T05:28:03.842Z,7111.68
2022-07-29T05:29:03.951Z,7173.12
2022-07-29T05:30:04.050Z,7260.16
2022-07-29T05:31:04.187Z,7367.68
2022-07-29T05:32:04.250Z,7470.08
2022-07-29T05:33:04.356Z,7577.6
2022-07-29T05:34:04.512Z,7649.28
2022-07-29T05:35:04.657Z,7685.12
2022-07-29T05:36:04.757Z,7695.36
2022-07-29T05:37:04.860Z,7674.88
2022-07-29T05:38:04.962Z,7639.04
2022-07-29T05:39:05.113Z,7644.16
2022-07-29T05:40:05.221Z,7674.88
2022-07-29T05:41:05.379Z,7736.32
2022-07-29T05:42:05.470Z,7823.36
2022-07-29T05:43:05.623Z,7915.52
2022-07-29T05:44:05.775Z,8043.52
2022-07-29T05:45:05.881Z,8181.76
2022-07-29T05:46:06.037Z,8299.52
2022-07-29T05:47:06.188Z,8401.92
2022-07-29T05:48:06.334Z,8494.08
2022-07-29T05:49:06.511Z,8576
2022-07-29T05:50:06.587Z,8698.88
2022-07-29T05:51:06.740Z,8801.28
2022-07-29T05:52:06.889Z,8924.16
2022-07-29T05:53:19.218Z,9052.16
2022-07-29T05:54:07.192Z,9149.439
2022-07-29T05:55:07.345Z,9287.68
2022-07-29T05:56:07.448Z,9415.68
2022-07-29T05:57:07.549Z,9584.64
2022-07-29T05:58:07.706Z,9794.56
2022-07-29T05:59:15.567Z,10004.479
2022-07-29T06:00:07.906Z,10219.52
2022-07-29T06:01:08.123Z,10496
2022-07-29T06:02:08.207Z,10700.8
2022-07-29T06:03:08.360Z,10803.2
2022-07-29T06:04:08.499Z,10874.88
2022-07-29T06:05:10.593Z,10915.84
2022-07-29T06:06:08.668Z,10956.8
2022-07-29T06:07:08.767Z,10987.52
2022-07-29T06:08:08.879Z,11038.72
2022-07-29T06:09:09.211Z,11079.68
2022-07-29T06:10:09.177Z,11048.96
2022-07-29T06:11:09.323Z,10946.56
2022-07-29T06:12:09.425Z,10844.16
2022-07-29T06:13:09.578Z,10711.04
2022-07-29T06:14:09.729Z,10547.2
2022-07-29T06:15:09.887Z,10408.96
2022-07-29T06:16:10.114Z,10240
2022-07-29T06:17:10.140Z,10071.04
2022-07-29T06:18:10.249Z,9948.16
2022-07-29T06:19:10.396Z,9835.52
2022-07-29T06:20:10.816Z,9774.08
2022-07-29T06:21:10.601Z,9779.2
2022-07-29T06:22:10.699Z,9830.399
2022-07-29T06:23:10.798Z,9907.2
2022-07-29T06:24:10.917Z,10030.08
2022-07-29T06:25:11.052Z,10199.04
2022-07-29T06:26:11.155Z,10414.08
2022-07-29T06:27:11.256Z,10618.88
2022-07-29T06:28:11.360Z,10813.439
2022-07-29T06:29:11.467Z,11018.24
2022-07-29T06:30:11.612Z,11151.359
2022-07-29T06:31:11.757Z,11304.96
2022-07-29T06:32:11.823Z,11468.8
2022-07-29T06:33:11.921Z,11612.16
2022-07-29T06:34:12.027Z,11714.56
2022-07-29T06:35:36.181Z,11816.96
2022-07-29T06:36:12.272Z,11776
2022-07-29T06:37:13.231Z,11653.12
2022-07-29T06:38:25.167Z,11540.479
2022-07-29T06:39:12.738Z,11397.12
2022-07-29T06:40:12.757Z,11192.319
2022-07-29T06:41:12.882Z,11059.2
2022-07-29T06:42:12.987Z,10967.04
2022-07-29T06:43:13.093Z,10823.68
2022-07-29T06:44:13.353Z,10649.6
2022-07-29T06:45:13.379Z,10485.76
2022-07-29T06:46:13.575Z,10260.479
2022-07-29T06:47:13.652Z,10024.96
2022-07-29T06:48:13.746Z,9774.08
2022-07-29T06:49:13.992Z,9538.56
2022-07-29T06:50:14.000Z,9333.76
2022-07-29T06:51:14.102Z,9205.76
2022-07-29T06:52:14.209Z,9108.479
2022-07-29T06:53:14.361Z,9093.12
2022-07-29T06:54:14.743Z,9144.319
2022-07-29T06:55:24.760Z,9251.84
2022-07-29T06:56:14.811Z,9415.68
2022-07-29T06:57:14.920Z,9600
2022-07-29T06:58:15.066Z,9804.8
2022-07-29T06:59:15.214Z,10009.6
2022-07-29T07:00:15.370Z,10199.04
2022-07-29T07:01:15.576Z,10373.12
2022-07-29T07:02:15.611Z,10557.439
2022-07-29T07:03:15.680Z,10711.04
2022-07-29T07:04:16.057Z,10864.64
2022-07-29T07:05:15.878Z,11048.96
2022-07-29T07:06:15.980Z,11274.24
2022-07-29T07:07:16.081Z,11550.72
2022-07-29T07:08:16.188Z,11909.12
2022-07-29T07:09:16.336Z,12267.52
2022-07-29T07:10:16.487Z,12646.399
2022-07-29T07:11:16.593Z,12922.88
2022-07-29T07:12:16.899Z,14417.92
2022-07-29T07:13:17.002Z,14909.439
2022-07-29T07:14:17.314Z,15411.199
2022-07-29T07:15:17.298Z,15861.76
2022-07-29T07:16:17.486Z,16394.24
2022-07-29T07:17:17.550Z,16844.8
2022-07-29T07:18:17.656Z,17346.56
2022-07-29T07:19:17.806Z,17797.12
2022-07-29T07:20:17.908Z,18278.4
2022-07-29T07:21:18.714Z,19005.44
2022-07-29T07:22:18.160Z,19701.76
2022-07-29T07:23:18.343Z,20643.84
2022-07-29T07:24:18.651Z,21012.48
2022-07-29T07:25:18.566Z,21585.92
2022-07-29T07:26:18.721Z,27115.52
2022-07-29T07:27:18.869Z,22241.28
2022-07-29T07:28:18.973Z,22159.36
2022-07-29T07:29:19.072Z,22446.08
2022-07-29T07:30:19.176Z,22855.68
2022-07-29T07:31:19.308Z,23285.76
2022-07-29T07:32:19.426Z,23715.84
2022-07-29T07:33:19.480Z,23961.6
2022-07-29T07:34:19.685Z,24064
2022-07-29T07:35:19.789Z,24842.24
2022-07-29T07:36:19.934Z,24760.32
2022-07-29T07:37:20.089Z,23552
2022-07-29T07:38:20.189Z,23183.36
2022-07-29T07:39:20.299Z,23470.08
2022-07-29T07:40:20.400Z,23572.48
2022-07-29T07:41:20.497Z,24514.56
2022-07-29T07:42:20.598Z,22753.28
2022-07-29T07:43:20.701Z,20817.92
2022-07-29T07:44:21.100Z,20418.56
2022-07-29T07:45:20.963Z,20992
2022-07-29T07:46:21.570Z,21913.6
2022-07-29T07:47:21.214Z,23183.36
2022-07-29T07:48:21.321Z,24760.32
2022-07-29T07:49:21.662Z,27217.92
2022-07-29T07:50:21.609Z,37027.84
2022-07-29T07:51:21.669Z,42270.72
2022-07-29T07:52:22.372Z,37703.68
2022-07-29T07:53:22.190Z,29163.52
2022-07-29T07:54:22.078Z,28692.48
2022-07-29T07:55:22.208Z,29061.12
2022-07-29T07:56:22.333Z,29921.28
2022-07-29T07:57:22.434Z,30576.64
2022-07-29T07:58:22.530Z,31744
2022-07-29T07:59:22.694Z,32645.12
2022-07-29T08:00:22.876Z,34406.4
2022-07-29T08:01:22.992Z,33136.64
2022-07-29T08:02:23.072Z,36823.04
2022-07-29T08:03:23.139Z,33628.16
2022-07-29T08:04:27.250Z,31477.76
2022-07-29T08:05:23.440Z,31047.68
2022-07-29T08:06:23.543Z,31191.04
2022-07-29T08:07:23.644Z,32051.2
2022-07-29T08:08:23.746Z,31928.32
2022-07-29T08:09:28.541Z,33218.56
2022-07-29T08:10:24.050Z,33423.36
2022-07-29T08:11:24.218Z,34037.76
2022-07-29T08:12:24.318Z,36065.28
2022-07-29T08:13:24.464Z,37642.24
2022-07-29T08:14:24.608Z,44113.92
2022-07-29T08:15:24.767Z,44277.76
2022-07-29T08:16:24.916Z,36495.36
2022-07-29T08:17:25.021Z,33853.44
2022-07-29T08:18:25.121Z,33525.76
2022-07-29T08:19:25.219Z,32972.8
2022-07-29T08:20:25.411Z,32501.76
2022-07-29T08:21:25.472Z,31211.52
2022-07-29T08:22:25.574Z,28098.56
2022-07-29T08:23:25.673Z,26132.48
2022-07-29T08:24:25.837Z,24801.28
2022-07-29T08:25:25.932Z,24104.96
2022-07-29T08:26:26.079Z,24125.44
2022-07-29T08:27:42.765Z,24698.88
2022-07-29T08:28:26.335Z,25231.36
2022-07-29T08:29:26.437Z,26378.24
2022-07-29T08:30:26.593Z,28364.8
2022-07-29T08:31:26.774Z,43458.56
2022-07-29T08:32:51.169Z,57016.32
2022-07-29T08:33:27.046Z,73973.76
2022-07-29T08:34:27.812Z,83025.92
2022-07-29T08:35:29.159Z,89456.64
2022-07-29T08:36:27.402Z,86589.44
2022-07-29T08:37:27.516Z,88637.44
2022-07-29T08:38:27.659Z,95109.12
2022-07-29T08:39:27.761Z,55009.28
2022-07-29T08:40:30.697Z,54845.44
2022-07-29T08:41:28.011Z,28651.52
2022-07-29T08:42:28.115Z,25661.44
2022-07-29T08:43:28.216Z,30699.52
2022-07-29T08:44:29.615Z,32645.12
2022-07-29T08:45:28.431Z,38748.16
2022-07-29T08:46:28.581Z,97648.64
2022-07-29T08:47:28.673Z,100925.44
2022-07-29T08:48:28.777Z,101171.2
2022-07-29T08:49:28.968Z,100270.08
2022-07-29T08:50:29.030Z,101253.12
2022-07-29T08:51:29.185Z,103055.36
2022-07-29T08:52:29.334Z,102563.84
2022-07-29T08:53:29.435Z,102154.23
2022-07-29T08:54:29.539Z,102973.44
2022-07-29T08:55:29.641Z,102236.16
2022-07-29T08:56:29.796Z,103301.12
2022-07-29T08:57:29.896Z,104529.91
2022-07-29T08:58:29.996Z,105267.2
2022-07-29T08:59:31.256Z,57589.76
2022-07-29T09:00:30.248Z,47472.64
2022-07-29T09:01:35.390Z,41512.96
2022-07-29T09:02:30.550Z,38830.08
2022-07-29T09:03:30.744Z,44195.84
2022-07-29T09:04:30.807Z,97730.55
2022-07-29T09:05:30.918Z,116572.16
2022-07-29T09:06:31.061Z,103055.36
2022-07-29T09:07:32.979Z,118456.32
2022-07-29T09:08:31.265Z,117637.12
2022-07-29T09:09:31.365Z,52838.4
2022-07-29T09:10:31.549Z,53575.68
2022-07-29T09:11:31.720Z,58408.96
2022-07-29T09:12:34.840Z,90931.2
2022-07-29T09:13:31.931Z,94289.91
2022-07-29T09:14:32.020Z,110919.68
2022-07-29T09:15:32.128Z,107397.12
2022-07-29T09:16:52.129Z,102236.16
2022-07-29T09:17:32.462Z,108462.08
2022-07-29T09:18:32.585Z,113377.28
2022-07-29T09:19:32.685Z,112312.32
2022-07-29T09:20:32.797Z,112148.48
2022-07-29T09:21:32.992Z,108789.76
2022-07-29T09:22:33.044Z,106168.32
2022-07-29T09:23:33.153Z,105676.8
2022-07-29T09:24:33.250Z,104693.76
2022-07-29T09:25:33.353Z,106086.4
2022-07-29T09:26:33.447Z,103137.28
2022-07-29T09:27:33.548Z,104857.59
2022-07-29T09:28:33.703Z,107233.28
2022-07-29T09:29:36.208Z,105922.55
2022-07-29T09:30:33.904Z,106004.48
2022-07-29T09:31:34.043Z,109445.12
2022-07-29T09:32:34.158Z,108707.84
2022-07-29T09:33:34.267Z,103956.48
2022-07-29T09:34:34.371Z,97894.4
2022-07-29T09:35:34.521Z,106659.84
2022-07-29T09:36:34.620Z,106823.68
2022-07-29T09:37:34.718Z,104202.23
2022-07-29T09:38:34.824Z,106168.32
2022-07-29T09:39:34.978Z,104611.84
2022-07-29T09:40:35.137Z,96747.52
2022-07-29T09:41:35.280Z,96337.91
2022-07-29T09:42:35.407Z,103956.48
2022-07-29T09:43:35.483Z,107151.36
2022-07-29T09:44:35.632Z,107888.64
2022-07-29T09:45:35.734Z,107560.96
2022-07-29T09:46:35.947Z,107479.04
2022-07-29T09:47:35.991Z,107069.44
2022-07-29T09:48:36.147Z,106823.68
2022-07-29T09:49:36.247Z,106496
2022-07-29T09:50:36.396Z,105922.55
2022-07-29T09:51:37.762Z,106332.16
2022-07-29T09:52:36.653Z,106496
2022-07-29T09:53:36.804Z,106905.59
2022-07-29T09:54:36.952Z,107315.2
2022-07-29T09:55:37.059Z,107397.12
2022-07-29T09:56:37.166Z,107724.8
2022-07-29T09:57:37.307Z,108298.23
2022-07-29T09:58:37.408Z,108789.76
2022-07-29T09:59:37.517Z,108298.23
2022-07-29T10:00:37.728Z,107806.72
2022-07-29T10:01:37.766Z,107233.28
2022-07-29T10:02:37.866Z,106332.16
2022-07-29T10:03:38.054Z,106414.08
2022-07-29T10:04:38.171Z,106659.84
2022-07-29T10:05:38.275Z,104939.52
2022-07-29T10:06:38.423Z,84623.36
2022-07-29T10:07:38.578Z,104939.52
2022-07-29T10:08:38.678Z,103710.72
2022-07-29T10:09:38.830Z,108544
2022-07-29T10:10:38.986Z,107397.12
2022-07-29T10:11:49.372Z,109117.44
2022-07-29T10:12:39.236Z,108625.91
2022-07-29T10:13:39.395Z,108216.32
2022-07-29T10:14:39.543Z,107397.12
2022-07-29T10:15:39.695Z,107151.36
2022-07-29T10:16:39.851Z,107233.28
2022-07-29T10:17:40.560Z,107560.96
2022-07-29T10:18:40.113Z,108625.91
2022-07-29T10:19:40.254Z,109363.2
2022-07-29T10:20:40.352Z,109936.64
2022-07-29T10:21:40.454Z,110182.4
2022-07-29T10:22:52.774Z,109690.88
2022-07-29T10:23:46.615Z,110182.4
2022-07-29T10:24:40.906Z,94945.28
2022-07-29T10:25:45.852Z,90603.52
2022-07-29T10:26:41.113Z,106987.52
2022-07-29T10:27:41.277Z,106332.16
2022-07-29T10:28:41.367Z,105103.36
2022-07-29T10:29:41.523Z,104366.08
2022-07-29T10:30:41.620Z,104857.59
2022-07-29T10:31:41.814Z,50544.64
2022-07-29T10:32:41.925Z,100433.91
2022-07-29T10:33:42.028Z,87408.64
2022-07-29T10:34:42.134Z,111411.2
2022-07-29T10:35:42.231Z,109854.72
2022-07-29T10:36:43.260Z,42475.52
2022-07-29T10:37:45.770Z,112066.55
2022-07-29T10:38:45.896Z,115916.8
2022-07-29T10:39:44.840Z,118702.08
2022-07-29T10:40:43.705Z,119193.59
2022-07-29T10:41:44.139Z,119767.04
2022-07-29T10:42:43.094Z,121487.36
2022-07-29T10:43:43.195Z,120340.48
2022-07-29T10:44:43.350Z,102809.6
2022-07-29T10:45:44.490Z,102481.91
2022-07-29T10:46:43.673Z,90603.52
2022-07-29T10:47:43.756Z,118784
2022-07-29T10:48:43.939Z,120176.64
2022-07-29T10:49:44.055Z,121241.59
2022-07-29T10:50:44.210Z,122142.72
2022-07-29T10:51:44.322Z,119111.68
2022-07-29T10:52:44.465Z,123535.36
2022-07-29T10:53:44.565Z,125255.68
2022-07-29T10:54:44.719Z,94945.28
2022-07-29T10:55:44.874Z,86425.6
2022-07-29T10:56:44.981Z,84951.04
2022-07-29T10:57:54.317Z,84213.76
2022-07-29T10:58:49.904Z,69181.44
2022-07-29T10:59:45.384Z,72908.8
2022-07-29T11:00:45.723Z,74711.04
2022-07-29T11:01:49.395Z,45834.24
2022-07-29T11:02:46.187Z,40898.56
2022-07-29T11:03:49.888Z,40120.32
2022-07-29T11:04:47.006Z,49520.64
2022-07-29T11:05:46.186Z,47554.56
2022-07-29T11:06:46.292Z,43417.6
2022-07-29T11:07:46.616Z,44441.6
2022-07-29T11:08:46.934Z,38522.88
2022-07-29T11:09:46.703Z,40714.24
2022-07-29T11:10:46.812Z,36147.2
2022-07-29T11:11:47.778Z,32972.8
2022-07-29T11:12:47.002Z,33710.08
2022-07-29T11:13:47.104Z,38686.72
2022-07-29T11:14:47.209Z,42639.36
2022-07-29T11:15:47.366Z,39157.76
2022-07-29T11:16:47.513Z,38973.44
2022-07-29T11:17:52.225Z,38604.8
2022-07-29T11:18:47.827Z,60170.24
2022-07-29T11:19:51.193Z,37089.28
2022-07-29T11:20:48.077Z,38277.12
2022-07-29T11:21:54.363Z,50667.52
2022-07-29T11:22:48.269Z,115015.68
2022-07-29T11:23:48.375Z,55951.36
2022-07-29T11:24:49.414Z,65085.44
2022-07-29T11:25:51.084Z,115015.68
2022-07-29T11:26:48.778Z,111820.8
2022-07-29T11:27:48.880Z,91914.23
2022-07-29T11:28:48.988Z,65617.92
2022-07-29T11:29:49.779Z,52305.92
2022-07-29T11:30:49.187Z,33423.36
2022-07-29T11:31:49.352Z,46694.4
2022-07-29T11:32:49.497Z,32993.28
2022-07-29T11:33:54.894Z,29020.16
2022-07-29T11:34:49.751Z,24535.04
2022-07-29T11:36:00.715Z,24657.92
2022-07-29T11:36:50.059Z,28139.52
2022-07-29T11:37:52.438Z,34385.92
2022-07-29T11:38:50.355Z,38625.28
2022-07-29T11:39:50.499Z,36986.88
2022-07-29T11:40:50.612Z,36556.8
2022-07-29T11:41:50.755Z,35614.72
2022-07-29T11:42:52.060Z,35225.6
2022-07-29T11:43:51.093Z,36126.72
2022-07-29T11:44:51.184Z,82698.24
2022-07-29T11:45:51.329Z,83763.2
2022-07-29T11:46:51.470Z,100106.23
2022-07-29T11:47:51.583Z,91258.88
2022-07-29T11:48:52.107Z,79421.44
2022-07-29T11:49:51.858Z,73482.24
2022-07-29T11:50:51.936Z,79749.12
2022-07-29T11:51:52.061Z,81756.16
2022-07-29T11:52:52.180Z,48332.8
2022-07-29T11:53:52.565Z,42229.76
2022-07-29T11:54:58.417Z,40304.64
2022-07-29T11:55:52.538Z,40714.24
2022-07-29T11:56:52.643Z,45998.08
2022-07-29T11:58:03.600Z,45301.76
2022-07-29T11:58:52.948Z,44441.6
2022-07-29T11:59:53.053Z,50257.92
2022-07-29T12:00:53.202Z,43786.24
2022-07-29T12:02:02.385Z,38440.96
2022-07-29T12:02:53.449Z,37847.04
2022-07-29T12:03:53.582Z,41779.2
2022-07-29T12:04:53.651Z,52428.8
2022-07-29T12:05:53.804Z,63078.4
2022-07-29T12:06:53.925Z,48128
2022-07-29T12:07:54.063Z,51445.76
2022-07-29T12:08:54.158Z,82903.04
2022-07-29T12:09:54.260Z,72867.84
2022-07-29T12:10:54.364Z,62750.72
2022-07-29T12:11:54.525Z,58572.8
2022-07-29T12:12:54.639Z,44032
2022-07-29T12:13:54.767Z,40693.76
2022-07-29T12:14:54.870Z,42065.92
2022-07-29T12:15:54.993Z,43909.12
2022-07-29T12:16:55.188Z,45916.16
2022-07-29T12:17:55.282Z,49438.72
2022-07-29T12:18:55.381Z,98385.91